AEE2CH LGAV-LGHI
Flight info
| Callsign | AEE2CH |
|---|---|
| Flight time | 0h 24m |
| Altitude | 17000 |
| Route | KRO N604 SOSIR Y134 PANOX |
| Aircraft | A320/M-SDE3FGHIRWY/LB1 |
Departure
| Time | 2026-05-05 12:47 |
|---|---|
| Airport | Athens Eleftherios Venizelos International Airport (LGAV) |
Arrival
| Time | 2026-05-05 13:12 |
|---|---|
| Airport | Chios Island National Airport (LGHI) |
| Time | Latitude | Longitude | Altitude | Speed | Heading |
|---|---|---|---|---|---|
| 2026-05-05 12:17 | 37.92831 | 23.94221 | 301 ft | 0 kts | 217° |
| 2026-05-05 12:39 | 37.92843 | 23.94233 | 303 ft | 4 kts | 217° |
| 2026-05-05 12:39 | 37.92865 | 23.94254 | 301 ft | 4 kts | 217° |
| 2026-05-05 12:39 | 37.92882 | 23.94270 | 300 ft | 4 kts | 220° |
| 2026-05-05 12:39 | 37.92899 | 23.94295 | 301 ft | 4 kts | 247° |
| 2026-05-05 12:40 | 37.92901 | 23.94323 | 300 ft | 3 kts | 304° |
| 2026-05-05 12:40 | 37.92900 | 23.94325 | 300 ft | 0 kts | 307° |
| 2026-05-05 12:41 | 37.92907 | 23.94314 | 301 ft | 4 kts | 307° |
| 2026-05-05 12:41 | 37.92935 | 23.94267 | 301 ft | 9 kts | 307° |
| 2026-05-05 12:42 | 37.92986 | 23.94183 | 301 ft | 15 kts | 307° |
| 2026-05-05 12:42 | 37.93053 | 23.94071 | 302 ft | 14 kts | 307° |
| 2026-05-05 12:42 | 37.93085 | 23.94018 | 301 ft | 9 kts | 307° |
| 2026-05-05 12:42 | 37.93135 | 23.93934 | 302 ft | 14 kts | 307° |
| 2026-05-05 12:43 | 37.93203 | 23.93820 | 301 ft | 17 kts | 307° |
| 2026-05-05 12:43 | 37.93287 | 23.93680 | 301 ft | 22 kts | 307° |
| 2026-05-05 12:43 | 37.93348 | 23.93578 | 304 ft | 10 kts | 307° |
| 2026-05-05 12:43 | 37.93398 | 23.93494 | 302 ft | 13 kts | 306° |
| 2026-05-05 12:44 | 37.93421 | 23.93383 | 302 ft | 16 kts | 240° |
| 2026-05-05 12:44 | 37.93343 | 23.93304 | 299 ft | 13 kts | 217° |
| 2026-05-05 12:44 | 37.93259 | 23.93225 | 300 ft | 18 kts | 217° |
| 2026-05-05 12:44 | 37.93148 | 23.93119 | 299 ft | 22 kts | 217° |
| 2026-05-05 12:45 | 37.93031 | 23.93007 | 299 ft | 21 kts | 216° |
| 2026-05-05 12:45 | 37.92950 | 23.92929 | 300 ft | 8 kts | 222° |
| 2026-05-05 12:45 | 37.92940 | 23.92843 | 299 ft | 14 kts | 306° |
| 2026-05-05 12:45 | 37.92960 | 23.92829 | 296 ft | 1 kts | 347° |
| 2026-05-05 12:46 | 37.93004 | 23.92828 | 296 ft | 12 kts | 6° |
| 2026-05-05 12:46 | 37.93088 | 23.92814 | 290 ft | 9 kts | 335° |
| 2026-05-05 12:46 | 37.93144 | 23.92837 | 292 ft | 9 kts | 36° |
| 2026-05-05 12:46 | 37.93240 | 23.92929 | 293 ft | 45 kts | 37° |
| 2026-05-05 12:47 | 37.93772 | 23.93434 | 292 ft | 140 kts | 37° |
| 2026-05-05 12:47 | 37.94673 | 23.94270 | 748 ft | 167 kts | 39° |
| 2026-05-05 12:47 | 37.95606 | 23.95125 | 1411 ft | 165 kts | 36° |
| 2026-05-05 12:47 | 37.96522 | 23.95959 | 2162 ft | 167 kts | 34° |
| 2026-05-05 12:48 | 37.97516 | 23.96863 | 2579 ft | 187 kts | 34° |
| 2026-05-05 12:48 | 37.98642 | 23.97886 | 2950 ft | 212 kts | 33° |
| 2026-05-05 12:48 | 37.99905 | 23.99041 | 3448 ft | 235 kts | 34° |
| 2026-05-05 12:48 | 38.01261 | 24.00288 | 4304 ft | 245 kts | 34° |
| 2026-05-05 12:49 | 38.02645 | 24.01610 | 5146 ft | 258 kts | 40° |
| 2026-05-05 12:49 | 38.03667 | 24.03551 | 5934 ft | 274 kts | 69° |
| 2026-05-05 12:49 | 38.04196 | 24.05901 | 6888 ft | 279 kts | 73° |
| 2026-05-05 12:49 | 38.04697 | 24.08295 | 7860 ft | 282 kts | 72° |
| 2026-05-05 12:50 | 38.05197 | 24.10715 | 8857 ft | 284 kts | 72° |
| 2026-05-05 12:50 | 38.05700 | 24.13153 | 9824 ft | 288 kts | 72° |
| 2026-05-05 12:50 | 38.06217 | 24.15642 | 10493 ft | 301 kts | 72° |
| 2026-05-05 12:50 | 38.06778 | 24.18311 | 10798 ft | 324 kts | 72° |
| 2026-05-05 12:51 | 38.07380 | 24.21178 | 11028 ft | 348 kts | 72° |
| 2026-05-05 12:51 | 38.08012 | 24.24206 | 11191 ft | 371 kts | 72° |
| 2026-05-05 12:51 | 38.08696 | 24.27484 | 11543 ft | 386 kts | 72° |
| 2026-05-05 12:51 | 38.09375 | 24.30756 | 12197 ft | 391 kts | 72° |
| 2026-05-05 12:52 | 38.10067 | 24.34112 | 12816 ft | 396 kts | 72° |
| 2026-05-05 12:52 | 38.10764 | 24.37500 | 13033 ft | 397 kts | 72° |
| 2026-05-05 12:52 | 38.11472 | 24.40929 | 13083 ft | 405 kts | 72° |
| 2026-05-05 12:52 | 38.12195 | 24.44422 | 13086 ft | 408 kts | 72° |
| 2026-05-05 12:53 | 38.12915 | 24.47906 | 13082 ft | 408 kts | 72° |
| 2026-05-05 12:53 | 38.13632 | 24.51393 | 13081 ft | 408 kts | 72° |
| 2026-05-05 12:53 | 38.14347 | 24.54883 | 13079 ft | 408 kts | 72° |
| 2026-05-05 12:53 | 38.15061 | 24.58375 | 13086 ft | 408 kts | 72° |
| 2026-05-05 12:54 | 38.16012 | 24.65508 | 13085 ft | 412 kts | 81° |
| 2026-05-05 12:54 | 38.16302 | 24.69125 | 13084 ft | 412 kts | 81° |
| 2026-05-05 12:54 | 38.16582 | 24.72700 | 13081 ft | 412 kts | 81° |
| 2026-05-05 12:55 | 38.16864 | 24.76327 | 13081 ft | 412 kts | 81° |
| 2026-05-05 12:55 | 38.17144 | 24.79950 | 13084 ft | 412 kts | 81° |
| 2026-05-05 12:55 | 38.17425 | 24.83571 | 13088 ft | 412 kts | 81° |
| 2026-05-05 12:55 | 38.17707 | 24.87200 | 13094 ft | 412 kts | 81° |
| 2026-05-05 12:56 | 38.17986 | 24.90823 | 13094 ft | 412 kts | 81° |
| 2026-05-05 12:56 | 38.18262 | 24.94447 | 13089 ft | 412 kts | 81° |
| 2026-05-05 12:56 | 38.18534 | 24.98068 | 13097 ft | 411 kts | 81° |
| 2026-05-05 12:56 | 38.18807 | 25.01683 | 13106 ft | 411 kts | 81° |
| 2026-05-05 12:57 | 38.19082 | 25.05304 | 13104 ft | 411 kts | 81° |
| 2026-05-05 12:57 | 38.19355 | 25.08922 | 13095 ft | 411 kts | 81° |
| 2026-05-05 12:57 | 38.19628 | 25.12540 | 13005 ft | 412 kts | 81° |
| 2026-05-05 12:57 | 38.19894 | 25.16158 | 12746 ft | 410 kts | 81° |
| 2026-05-05 12:58 | 38.20156 | 25.19755 | 12482 ft | 408 kts | 81° |
| 2026-05-05 12:58 | 38.20419 | 25.23348 | 12232 ft | 406 kts | 81° |
| 2026-05-05 12:58 | 38.20679 | 25.26869 | 11974 ft | 405 kts | 81° |
| 2026-05-05 12:58 | 38.20941 | 25.30422 | 11721 ft | 403 kts | 81° |
| 2026-05-05 12:59 | 38.21202 | 25.33967 | 11480 ft | 401 kts | 81° |
| 2026-05-05 12:59 | 38.21453 | 25.37433 | 11249 ft | 384 kts | 81° |
| 2026-05-05 12:59 | 38.21685 | 25.40718 | 11129 ft | 363 kts | 81° |
| 2026-05-05 13:00 | 38.22110 | 25.46799 | 10878 ft | 329 kts | 81° |
| 2026-05-05 13:00 | 38.22313 | 25.49641 | 10756 ft | 316 kts | 80° |
| 2026-05-05 13:01 | 38.22885 | 25.57599 | 10242 ft | 290 kts | 80° |
| 2026-05-05 13:01 | 38.23066 | 25.60125 | 10178 ft | 291 kts | 80° |
| 2026-05-05 13:01 | 38.23250 | 25.62694 | 10103 ft | 292 kts | 80° |
| 2026-05-05 13:01 | 38.23433 | 25.65263 | 9997 ft | 291 kts | 80° |
| 2026-05-05 13:02 | 38.23617 | 25.67844 | 9544 ft | 294 kts | 80° |
| 2026-05-05 13:02 | 38.23797 | 25.70423 | 9180 ft | 292 kts | 80° |
| 2026-05-05 13:02 | 38.23973 | 25.72997 | 8808 ft | 290 kts | 80° |
| 2026-05-05 13:02 | 38.24148 | 25.75559 | 8418 ft | 290 kts | 81° |
| 2026-05-05 13:03 | 38.24321 | 25.78113 | 8017 ft | 290 kts | 81° |
| 2026-05-05 13:03 | 38.24491 | 25.80615 | 7652 ft | 288 kts | 81° |
| 2026-05-05 13:03 | 38.24665 | 25.83155 | 7340 ft | 286 kts | 81° |
| 2026-05-05 13:03 | 38.24836 | 25.85669 | 6985 ft | 284 kts | 81° |
| 2026-05-05 13:04 | 38.25008 | 25.88203 | 6417 ft | 281 kts | 81° |
| 2026-05-05 13:04 | 38.25132 | 25.90597 | 5984 ft | 273 kts | 88° |
| 2026-05-05 13:04 | 38.24575 | 25.92861 | 5651 ft | 268 kts | 119° |
| 2026-05-05 13:04 | 38.23575 | 25.94801 | 5330 ft | 257 kts | 120° |
| 2026-05-05 13:05 | 38.22622 | 25.96670 | 5024 ft | 246 kts | 120° |
| 2026-05-05 13:05 | 38.21720 | 25.98456 | 4725 ft | 235 kts | 120° |
| 2026-05-05 13:05 | 38.20860 | 26.00164 | 4442 ft | 224 kts | 120° |
| 2026-05-05 13:05 | 38.20028 | 26.01818 | 4175 ft | 221 kts | 120° |
| 2026-05-05 13:06 | 38.19241 | 26.03381 | 3917 ft | 219 kts | 120° |
| 2026-05-05 13:06 | 38.18685 | 26.04487 | 3745 ft | 218 kts | 121° |
| 2026-05-05 13:06 | 38.17874 | 26.06100 | 3484 ft | 214 kts | 121° |
| 2026-05-05 13:06 | 38.17144 | 26.07741 | 3227 ft | 211 kts | 104° |
| 2026-05-05 13:07 | 38.17153 | 26.09372 | 3041 ft | 200 kts | 66° |
| 2026-05-05 13:07 | 38.17300 | 26.09782 | 2980 ft | 197 kts | 55° |
| 2026-05-05 13:07 | 38.18131 | 26.10799 | 2819 ft | 187 kts | 22° |
| 2026-05-05 13:08 | 38.19378 | 26.11076 | 2645 ft | 183 kts | 356° |
| 2026-05-05 13:08 | 38.20650 | 26.11174 | 2467 ft | 184 kts | 6° |
| 2026-05-05 13:08 | 38.21887 | 26.11433 | 2313 ft | 177 kts | 8° |
| 2026-05-05 13:08 | 38.23060 | 26.11707 | 2086 ft | 167 kts | 8° |
| 2026-05-05 13:09 | 38.24175 | 26.11964 | 1846 ft | 158 kts | 8° |
| 2026-05-05 13:09 | 38.25216 | 26.12195 | 1654 ft | 145 kts | 8° |
| 2026-05-05 13:09 | 38.26174 | 26.12399 | 1525 ft | 138 kts | 7° |
| 2026-05-05 13:09 | 38.27107 | 26.12600 | 1338 ft | 135 kts | 7° |
| 2026-05-05 13:10 | 38.27840 | 26.12744 | 1183 ft | 134 kts | 5° |
| 2026-05-05 13:10 | 38.28760 | 26.12905 | 1010 ft | 133 kts | 5° |
| 2026-05-05 13:10 | 38.29682 | 26.13079 | 780 ft | 133 kts | 7° |
| 2026-05-05 13:10 | 38.30592 | 26.13266 | 604 ft | 132 kts | 9° |
| 2026-05-05 13:11 | 38.31495 | 26.13462 | 443 ft | 132 kts | 10° |
| 2026-05-05 13:11 | 38.32392 | 26.13637 | 275 ft | 129 kts | 12° |
| 2026-05-05 13:11 | 38.33276 | 26.13829 | 102 ft | 130 kts | 11° |
| 2026-05-05 13:11 | 38.34136 | 26.14014 | 30 ft | 112 kts | 8° |
| 2026-05-05 13:12 | 38.34596 | 26.14111 | 29 ft | 29 kts | 11° |
| 2026-05-05 13:12 | 38.34616 | 26.14130 | 29 ft | 3 kts | 77° |
| 2026-05-05 13:12 | 38.34642 | 26.14134 | 29 ft | 9 kts | 357° |
| 2026-05-05 13:12 | 38.34722 | 26.14138 | 29 ft | 13 kts | 8° |
| 2026-05-05 13:13 | 38.34826 | 26.14160 | 29 ft | 17 kts | 9° |
| 2026-05-05 13:13 | 38.34904 | 26.14186 | 29 ft | 5 kts | 315° |
| 2026-05-05 13:13 | 38.34893 | 26.14176 | 29 ft | 4 kts | 197° |
| 2026-05-05 13:13 | 38.34804 | 26.14155 | 29 ft | 19 kts | 189° |
| 2026-05-05 13:14 | 38.34665 | 26.14126 | 29 ft | 22 kts | 189° |
| 2026-05-05 13:14 | 38.34559 | 26.14131 | 29 ft | 13 kts | 151° |
| 2026-05-05 13:14 | 38.34486 | 26.14189 | 29 ft | 8 kts | 172° |
| 2026-05-05 13:14 | 38.34469 | 26.14219 | 29 ft | 0 kts | 55° |
| 2026-05-05 13:15 | 38.34438 | 26.14226 | 29 ft | 0 kts | 101° |